sensor_id;sensor_type;location;lat;lon;timestamp;pressure;altitude;pressure_sealevel;temperature;humidity
51781;BME280;37844;57.126;24.288;2023-08-06T00:01:21;101196.72;;;18.37;100.00
51781;BME280;37844;57.126;24.288;2023-08-06T00:04:07;101190.59;;;18.40;100.00
51781;BME280;37844;57.126;24.288;2023-08-06T00:06:50;101177.66;;;18.31;100.00
51781;BME280;37844;57.126;24.288;2023-08-06T00:09:34;101185.47;;;18.32;100.00
51781;BME280;37844;57.126;24.288;2023-08-06T00:12:19;101188.94;;;18.33;100.00
51781;BME280;37844;57.126;24.288;2023-08-06T00:15:03;101180.38;;;18.23;100.00
51781;BME280;37844;57.126;24.288;2023-08-06T00:17:47;101182.16;;;18.18;100.00
51781;BME280;37844;57.126;24.288;2023-08-06T00:20:31;101201.28;;;18.20;100.00
51781;BME280;37844;57.126;24.288;2023-08-06T00:23:15;101203.69;;;18.37;100.00
51781;BME280;37844;57.126;24.288;2023-08-06T00:25:59;101215.81;;;18.42;100.00
51781;BME280;37844;57.126;24.288;2023-08-06T00:28:43;101205.19;;;18.55;100.00
51781;BME280;37844;57.126;24.288;2023-08-06T00:31:27;101179.22;;;18.46;100.00
51781;BME280;37844;57.126;24.288;2023-08-06T00:34:11;101157.69;;;18.30;100.00
51781;BME280;37844;57.126;24.288;2023-08-06T00:36:55;101174.94;;;18.40;100.00
51781;BME280;37844;57.126;24.288;2023-08-06T00:39:39;101179.88;;;18.60;100.00
51781;BME280;37844;57.126;24.288;2023-08-06T00:42:23;101169.38;;;18.66;100.00
51781;BME280;37844;57.126;24.288;2023-08-06T00:45:08;101173.00;;;18.56;100.00
51781;BME280;37844;57.126;24.288;2023-08-06T00:47:52;101161.66;;;18.55;100.00
51781;BME280;37844;57.126;24.288;2023-08-06T00:50:36;101154.69;;;18.57;100.00
51781;BME280;37844;57.126;24.288;2023-08-06T00:53:20;101159.22;;;18.43;100.00
51781;BME280;37844;57.126;24.288;2023-08-06T00:56:05;101138.56;;;18.28;100.00
51781;BME280;37844;57.126;24.288;2023-08-06T00:58:50;101129.88;;;18.24;100.00
51781;BME280;37844;57.126;24.288;2023-08-06T01:01:34;101121.22;;;18.23;100.00
51781;BME280;37844;57.126;24.288;2023-08-06T01:04:18;101108.22;;;18.19;100.00
51781;BME280;37844;57.126;24.288;2023-08-06T01:13:43;101069.00;;;18.23;100.00
51781;BME280;37844;57.126;24.288;2023-08-06T01:16:30;101068.34;;;18.09;100.00
51781;BME280;37844;57.126;24.288;2023-08-06T01:19:21;101069.19;;;18.11;100.00
51781;BME280;37844;57.126;24.288;2023-08-06T01:22:05;101051.81;;;18.09;100.00
51781;BME280;37844;57.126;24.288;2023-08-06T01:24:50;101054.50;;;18.02;100.00
51781;BME280;37844;57.126;24.288;2023-08-06T01:27:48;101065.69;;;18.12;100.00
51781;BME280;37844;57.126;24.288;2023-08-06T01:30:33;101054.38;;;18.13;100.00
51781;BME280;37844;57.126;24.288;2023-08-06T01:33:23;101053.47;;;18.16;100.00
51781;BME280;37844;57.126;24.288;2023-08-06T01:36:08;101062.09;;;18.21;100.00
51781;BME280;37844;57.126;24.288;2023-08-06T01:38:53;101058.50;;;18.28;100.00
51781;BME280;37844;57.126;24.288;2023-08-06T01:41:37;101034.97;;;18.33;100.00
51781;BME280;37844;57.126;24.288;2023-08-06T01:44:21;101030.78;;;18.19;100.00
51781;BME280;37844;57.126;24.288;2023-08-06T01:47:05;101028.31;;;18.10;100.00
51781;BME280;37844;57.126;24.288;2023-08-06T01:49:50;101032.56;;;18.17;100.00
51781;BME280;37844;57.126;24.288;2023-08-06T01:52:34;101038.53;;;18.27;100.00
51781;BME280;37844;57.126;24.288;2023-08-06T01:55:17;101038.44;;;18.32;100.00
51781;BME280;37844;57.126;24.288;2023-08-06T01:58:02;101066.94;;;18.47;100.00
51781;BME280;37844;57.126;24.288;2023-08-06T02:00:46;101093.84;;;18.52;100.00
51781;BME280;37844;57.126;24.288;2023-08-06T02:03:30;101091.25;;;18.51;100.00
51781;BME280;37844;57.126;24.288;2023-08-06T02:06:14;101063.53;;;18.42;100.00
51781;BME280;37844;57.126;24.288;2023-08-06T02:08:58;101045.41;;;18.33;100.00
51781;BME280;37844;57.126;24.288;2023-08-06T02:11:42;101058.44;;;18.34;100.00
51781;BME280;37844;57.126;24.288;2023-08-06T02:14:26;101054.88;;;18.40;100.00
51781;BME280;37844;57.126;24.288;2023-08-06T02:17:10;101067.63;;;18.60;100.00
51781;BME280;37844;57.126;24.288;2023-08-06T02:19:54;101071.19;;;18.54;100.00
51781;BME280;37844;57.126;24.288;2023-08-06T02:22:48;101072.63;;;18.74;100.00
51781;BME280;37844;57.126;24.288;2023-08-06T02:25:32;101056.31;;;18.58;100.00
51781;BME280;37844;57.126;24.288;2023-08-06T02:28:16;101056.09;;;18.73;100.00
51781;BME280;37844;57.126;24.288;2023-08-06T02:31:03;101053.50;;;18.73;100.00
51781;BME280;37844;57.126;24.288;2023-08-06T02:33:47;101040.44;;;18.75;100.00
51781;BME280;37844;57.126;24.288;2023-08-06T02:36:31;101032.03;;;18.56;100.00
51781;BME280;37844;57.126;24.288;2023-08-06T02:39:15;101032.03;;;18.54;100.00
51781;BME280;37844;57.126;24.288;2023-08-06T02:41:59;101035.50;;;18.56;100.00
51781;BME280;37844;57.126;24.288;2023-08-06T02:44:43;101039.88;;;18.54;100.00
51781;BME280;37844;57.126;24.288;2023-08-06T02:47:27;101055.28;;;18.70;100.00
51781;BME280;37844;57.126;24.288;2023-08-06T02:50:10;101049.13;;;18.74;100.00
51781;BME280;37844;57.126;24.288;2023-08-06T02:52:54;101042.16;;;18.77;100.00
51781;BME280;37844;57.126;24.288;2023-08-06T02:55:45;101026.72;;;18.60;100.00
51781;BME280;37844;57.126;24.288;2023-08-06T02:58:30;101039.66;;;18.68;100.00
51781;BME280;37844;57.126;24.288;2023-08-06T03:01:14;101035.28;;;18.70;100.00
51781;BME280;37844;57.126;24.288;2023-08-06T03:03:58;101043.00;;;18.78;100.00
51781;BME280;37844;57.126;24.288;2023-08-06T03:06:42;101050.03;;;18.73;100.00
51781;BME280;37844;57.126;24.288;2023-08-06T03:09:26;101052.41;;;18.88;100.00
51781;BME280;37844;57.126;24.288;2023-08-06T03:12:11;101043.72;;;18.86;100.00
51781;BME280;37844;57.126;24.288;2023-08-06T03:14:55;101042.34;;;18.63;100.00
51781;BME280;37844;57.126;24.288;2023-08-06T03:17:39;101040.41;;;18.78;100.00
51781;BME280;37844;57.126;24.288;2023-08-06T03:20:23;101042.94;;;18.81;100.00
51781;BME280;37844;57.126;24.288;2023-08-06T03:23:09;101052.53;;;18.82;100.00
51781;BME280;37844;57.126;24.288;2023-08-06T03:25:53;101060.44;;;18.74;100.00
51781;BME280;37844;57.126;24.288;2023-08-06T03:28:37;101050.66;;;18.89;100.00
51781;BME280;37844;57.126;24.288;2023-08-06T03:31:21;101040.94;;;18.97;100.00
51781;BME280;37844;57.126;24.288;2023-08-06T03:34:05;101026.34;;;18.87;100.00
51781;BME280;37844;57.126;24.288;2023-08-06T03:36:50;101009.69;;;18.92;100.00
51781;BME280;37844;57.126;24.288;2023-08-06T03:39:34;101003.69;;;18.87;100.00
51781;BME280;37844;57.126;24.288;2023-08-06T03:42:18;101011.69;;;18.76;100.00
51781;BME280;37844;57.126;24.288;2023-08-06T03:45:02;101004.63;;;18.83;100.00
51781;BME280;37844;57.126;24.288;2023-08-06T03:47:46;100994.94;;;18.88;100.00
51781;BME280;37844;57.126;24.288;2023-08-06T03:50:30;100993.94;;;18.95;100.00
51781;BME280;37844;57.126;24.288;2023-08-06T03:53:14;101009.31;;;19.12;100.00
51781;BME280;37844;57.126;24.288;2023-08-06T03:55:58;100976.50;;;18.97;100.00
51781;BME280;37844;57.126;24.288;2023-08-06T03:58:43;100978.28;;;18.95;100.00
51781;BME280;37844;57.126;24.288;2023-08-06T04:01:27;100985.97;;;19.03;100.00
51781;BME280;37844;57.126;24.288;2023-08-06T04:04:11;100986.88;;;19.02;100.00
51781;BME280;37844;57.126;24.288;2023-08-06T04:06:55;100970.13;;;19.12;100.00
51781;BME280;37844;57.126;24.288;2023-08-06T04:09:59;100971.69;;;19.22;100.00
51781;BME280;37844;57.126;24.288;2023-08-06T04:12:44;100974.03;;;19.36;100.00
51781;BME280;37844;57.126;24.288;2023-08-06T04:15:28;100971.53;;;19.30;100.00
51781;BME280;37844;57.126;24.288;2023-08-06T04:18:12;100964.47;;;19.35;100.00
51781;BME280;37844;57.126;24.288;2023-08-06T04:20:56;100959.94;;;19.43;100.00
51781;BME280;37844;57.126;24.288;2023-08-06T04:23:41;100962.34;;;19.53;100.00
51781;BME280;37844;57.126;24.288;2023-08-06T04:26:25;100947.09;;;19.31;100.00
51781;BME280;37844;57.126;24.288;2023-08-06T04:29:09;100927.06;;;19.32;100.00
51781;BME280;37844;57.126;24.288;2023-08-06T04:31:53;100951.31;;;19.38;100.00
51781;BME280;37844;57.126;24.288;2023-08-06T04:34:37;100959.72;;;19.53;100.00
51781;BME280;37844;57.126;24.288;2023-08-06T04:37:21;100977.75;;;19.24;100.00
51781;BME280;37844;57.126;24.288;2023-08-06T04:40:05;100980.22;;;19.32;100.00
51781;BME280;37844;57.126;24.288;2023-08-06T04:42:50;100963.63;;;19.33;100.00
51781;BME280;37844;57.126;24.288;2023-08-06T04:45:33;100940.31;;;19.22;100.00
51781;BME280;37844;57.126;24.288;2023-08-06T04:48:17;100926.34;;;19.25;100.00
51781;BME280;37844;57.126;24.288;2023-08-06T04:51:01;100927.19;;;19.25;100.00
51781;BME280;37844;57.126;24.288;2023-08-06T04:53:45;100924.88;;;19.54;100.00
51781;BME280;37844;57.126;24.288;2023-08-06T04:56:30;100918.50;;;19.65;100.00
51781;BME280;37844;57.126;24.288;2023-08-06T04:59:14;100920.22;;;19.69;100.00
51781;BME280;37844;57.126;24.288;2023-08-06T05:01:58;100927.25;;;19.64;100.00
51781;BME280;37844;57.126;24.288;2023-08-06T05:04:42;100930.75;;;19.65;100.00
51781;BME280;37844;57.126;24.288;2023-08-06T05:07:26;100918.44;;;19.70;100.00
51781;BME280;37844;57.126;24.288;2023-08-06T05:10:10;100900.41;;;19.56;100.00
51781;BME280;37844;57.126;24.288;2023-08-06T05:12:54;100906.19;;;19.72;100.00
51781;BME280;37844;57.126;24.288;2023-08-06T05:15:38;100899.66;;;19.90;100.00
51781;BME280;37844;57.126;24.288;2023-08-06T05:18:26;100891.94;;;19.85;100.00
51781;BME280;37844;57.126;24.288;2023-08-06T05:21:09;100902.28;;;19.90;100.00
51781;BME280;37844;57.126;24.288;2023-08-06T05:23:54;100890.84;;;19.96;100.00
51781;BME280;37844;57.126;24.288;2023-08-06T05:26:38;100884.47;;;20.06;100.00
51781;BME280;37844;57.126;24.288;2023-08-06T05:29:22;100870.47;;;20.08;100.00
51781;BME280;37844;57.126;24.288;2023-08-06T05:32:06;100872.50;;;20.31;100.00
51781;BME280;37844;57.126;24.288;2023-08-06T05:34:50;100868.00;;;20.37;100.00
51781;BME280;37844;57.126;24.288;2023-08-06T05:37:34;100859.84;;;20.49;100.00
51781;BME280;37844;57.126;24.288;2023-08-06T05:40:18;100856.41;;;20.45;100.00
51781;BME280;37844;57.126;24.288;2023-08-06T05:43:02;100855.72;;;20.73;100.00
51781;BME280;37844;57.126;24.288;2023-08-06T05:45:46;100844.19;;;21.41;100.00
51781;BME280;37844;57.126;24.288;2023-08-06T05:48:32;100826.34;;;22.07;100.00
51781;BME280;37844;57.126;24.288;2023-08-06T05:51:16;100810.84;;;22.26;100.00
51781;BME280;37844;57.126;24.288;2023-08-06T05:54:00;100802.31;;;22.44;100.00
51781;BME280;37844;57.126;24.288;2023-08-06T05:56:44;100782.28;;;22.89;100.00
51781;BME280;37844;57.126;24.288;2023-08-06T05:59:28;100789.84;;;23.88;100.00
51781;BME280;37844;57.126;24.288;2023-08-06T06:02:13;100774.88;;;24.51;100.00
51781;BME280;37844;57.126;24.288;2023-08-06T06:04:57;100767.59;;;24.57;100.00
51781;BME280;37844;57.126;24.288;2023-08-06T06:07:41;100757.75;;;24.60;100.00
51781;BME280;37844;57.126;24.288;2023-08-06T06:10:25;100755.34;;;25.12;100.00
51781;BME280;37844;57.126;24.288;2023-08-06T06:13:08;100759.75;;;25.67;100.00
51781;BME280;37844;57.126;24.288;2023-08-06T06:15:56;100749.28;;;27.00;100.00
51781;BME280;37844;57.126;24.288;2023-08-06T06:18:40;100759.16;;;27.44;100.00
51781;BME280;37844;57.126;24.288;2023-08-06T06:21:24;100743.31;;;28.05;100.00
51781;BME280;37844;57.126;24.288;2023-08-06T06:24:08;100749.44;;;27.91;100.00
51781;BME280;37844;57.126;24.288;2023-08-06T06:26:53;100738.69;;;28.51;100.00
51781;BME280;37844;57.126;24.288;2023-08-06T06:29:38;100737.41;;;28.00;100.00
51781;BME280;37844;57.126;24.288;2023-08-06T06:32:23;100744.44;;;28.01;100.00
51781;BME280;37844;57.126;24.288;2023-08-06T06:35:07;100740.41;;;27.33;100.00
51781;BME280;37844;57.126;24.288;2023-08-06T06:37:51;100741.66;;;27.42;100.00
51781;BME280;37844;57.126;24.288;2023-08-06T06:40:36;100737.34;;;28.16;100.00
51781;BME280;37844;57.126;24.288;2023-08-06T06:43:20;100730.09;;;28.48;100.00
51781;BME280;37844;57.126;24.288;2023-08-06T06:46:04;100745.19;;;28.89;100.00
51781;BME280;37844;57.126;24.288;2023-08-06T06:48:48;100741.19;;;28.96;100.00
51781;BME280;37844;57.126;24.288;2023-08-06T06:51:32;100741.84;;;29.14;100.00
51781;BME280;37844;57.126;24.288;2023-08-06T06:54:16;100746.88;;;28.90;100.00
51781;BME280;37844;57.126;24.288;2023-08-06T06:57:00;100728.97;;;28.93;100.00
51781;BME280;37844;57.126;24.288;2023-08-06T06:59:44;100725.16;;;29.92;100.00
51781;BME280;37844;57.126;24.288;2023-08-06T07:02:28;100726.63;;;29.70;100.00
51781;BME280;37844;57.126;24.288;2023-08-06T07:05:12;100725.69;;;28.75;100.00
51781;BME280;37844;57.126;24.288;2023-08-06T07:07:56;100724.50;;;27.79;100.00
51781;BME280;37844;57.126;24.288;2023-08-06T07:10:41;100730.78;;;27.62;100.00
51781;BME280;37844;57.126;24.288;2023-08-06T07:13:25;100729.47;;;28.14;100.00
51781;BME280;37844;57.126;24.288;2023-08-06T07:16:09;100732.91;;;27.72;100.00
51781;BME280;37844;57.126;24.288;2023-08-06T07:18:53;100729.72;;;27.95;100.00
51781;BME280;37844;57.126;24.288;2023-08-06T07:21:38;100720.66;;;27.69;100.00
51781;BME280;37844;57.126;24.288;2023-08-06T07:24:22;100727.06;;;27.19;100.00
51781;BME280;37844;57.126;24.288;2023-08-06T07:27:06;100729.56;;;27.06;100.00
51781;BME280;37844;57.126;24.288;2023-08-06T07:29:50;100712.94;;;27.50;100.00
51781;BME280;37844;57.126;24.288;2023-08-06T07:32:34;100711.53;;;28.48;100.00
51781;BME280;37844;57.126;24.288;2023-08-06T07:35:18;100691.63;;;30.53;100.00
51781;BME280;37844;57.126;24.288;2023-08-06T07:38:03;100690.34;;;31.90;100.00
51781;BME280;37844;57.126;24.288;2023-08-06T07:40:47;100690.31;;;31.68;100.00
51781;BME280;37844;57.126;24.288;2023-08-06T07:43:31;100684.78;;;32.39;96.61
51781;BME280;37844;57.126;24.288;2023-08-06T07:46:16;100687.84;;;33.11;93.48
51781;BME280;37844;57.126;24.288;2023-08-06T07:49:00;100693.63;;;32.73;90.25
51781;BME280;37844;57.126;24.288;2023-08-06T07:51:44;100684.19;;;32.24;91.99
51781;BME280;37844;57.126;24.288;2023-08-06T07:54:28;100677.47;;;32.74;88.72
51781;BME280;37844;57.126;24.288;2023-08-06T07:57:12;100690.41;;;33.13;86.50
51781;BME280;37844;57.126;24.288;2023-08-06T07:59:57;100683.91;;;33.90;84.86
51781;BME280;37844;57.126;24.288;2023-08-06T08:02:41;100671.84;;;34.76;77.75
51781;BME280;37844;57.126;24.288;2023-08-06T08:05:25;100674.44;;;34.47;74.33
51781;BME280;37844;57.126;24.288;2023-08-06T08:08:10;100670.66;;;33.88;75.97
51781;BME280;37844;57.126;24.288;2023-08-06T08:10:55;100668.97;;;32.81;80.92
51781;BME280;37844;57.126;24.288;2023-08-06T08:13:39;100659.19;;;32.36;85.70
51781;BME280;37844;57.126;24.288;2023-08-06T08:16:23;100655.41;;;32.72;88.13
51781;BME280;37844;57.126;24.288;2023-08-06T08:19:07;100653.47;;;31.73;93.19
51781;BME280;37844;57.126;24.288;2023-08-06T08:21:51;100648.47;;;31.57;92.46
51781;BME280;37844;57.126;24.288;2023-08-06T08:24:35;100645.75;;;31.11;96.85
51781;BME280;37844;57.126;24.288;2023-08-06T08:27:19;100651.78;;;31.25;100.00
51781;BME280;37844;57.126;24.288;2023-08-06T08:30:04;100639.28;;;31.26;100.00
51781;BME280;37844;57.126;24.288;2023-08-06T08:32:48;100633.81;;;31.63;99.58
51781;BME280;37844;57.126;24.288;2023-08-06T08:35:33;100640.72;;;31.19;100.00
51781;BME280;37844;57.126;24.288;2023-08-06T08:38:17;100644.47;;;31.16;100.00
51781;BME280;37844;57.126;24.288;2023-08-06T08:41:01;100634.56;;;30.94;100.00
51781;BME280;37844;57.126;24.288;2023-08-06T08:43:46;100644.03;;;30.98;100.00
51781;BME280;37844;57.126;24.288;2023-08-06T08:46:32;100635.78;;;30.53;100.00
51781;BME280;37844;57.126;24.288;2023-08-06T08:49:21;100635.28;;;30.22;100.00
51781;BME280;37844;57.126;24.288;2023-08-06T08:52:06;100635.94;;;30.13;100.00
51781;BME280;37844;57.126;24.288;2023-08-06T08:54:54;100612.63;;;30.42;100.00
51781;BME280;37844;57.126;24.288;2023-08-06T08:57:38;100617.66;;;30.58;100.00
51781;BME280;37844;57.126;24.288;2023-08-06T09:00:22;100611.78;;;31.14;100.00
51781;BME280;37844;57.126;24.288;2023-08-06T09:03:06;100610.03;;;31.02;100.00
51781;BME280;37844;57.126;24.288;2023-08-06T09:05:53;100613.97;;;31.20;100.00
51781;BME280;37844;57.126;24.288;2023-08-06T09:08:47;100596.19;;;30.85;100.00
51781;BME280;37844;57.126;24.288;2023-08-06T09:11:36;100591.00;;;30.71;100.00
51781;BME280;37844;57.126;24.288;2023-08-06T09:14:23;100594.50;;;30.72;100.00
51781;BME280;37844;57.126;24.288;2023-08-06T09:17:07;100582.94;;;30.97;100.00
51781;BME280;37844;57.126;24.288;2023-08-06T09:19:54;100587.31;;;31.20;100.00
51781;BME280;37844;57.126;24.288;2023-08-06T09:22:39;100587.00;;;31.36;100.00
51781;BME280;37844;57.126;24.288;2023-08-06T09:25:25;100582.00;;;31.20;100.00
51781;BME280;37844;57.126;24.288;2023-08-06T09:28:10;100567.16;;;30.70;100.00
51781;BME280;37844;57.126;24.288;2023-08-06T09:30:54;100570.56;;;30.72;100.00
51781;BME280;37844;57.126;24.288;2023-08-06T09:33:39;100566.16;;;30.59;100.00
51781;BME280;37844;57.126;24.288;2023-08-06T09:36:23;100567.47;;;30.78;100.00
51781;BME280;37844;57.126;24.288;2023-08-06T09:39:26;100557.34;;;30.70;100.00
51781;BME280;37844;57.126;24.288;2023-08-06T09:42:15;100556.81;;;31.02;100.00
51781;BME280;37844;57.126;24.288;2023-08-06T09:45:06;100553.53;;;31.10;100.00
51781;BME280;37844;57.126;24.288;2023-08-06T09:47:50;100557.88;;;31.11;100.00
51781;BME280;37844;57.126;24.288;2023-08-06T09:50:36;100548.06;;;31.00;100.00
51781;BME280;37844;57.126;24.288;2023-08-06T09:53:22;100557.19;;;30.60;100.00
51781;BME280;37844;57.126;24.288;2023-08-06T09:56:06;100551.78;;;30.38;100.00
51781;BME280;37844;57.126;24.288;2023-08-06T09:58:50;100538.59;;;30.36;100.00
51781;BME280;37844;57.126;24.288;2023-08-06T10:01:35;100529.88;;;30.34;100.00
51781;BME280;37844;57.126;24.288;2023-08-06T10:04:20;100533.59;;;30.32;100.00
51781;BME280;37844;57.126;24.288;2023-08-06T10:07:04;100533.94;;;30.27;100.00
51781;BME280;37844;57.126;24.288;2023-08-06T10:09:49;100532.41;;;30.23;100.00
51781;BME280;37844;57.126;24.288;2023-08-06T10:12:35;100547.97;;;29.92;100.00
51781;BME280;37844;57.126;24.288;2023-08-06T10:15:25;100537.38;;;30.04;100.00
51781;BME280;37844;57.126;24.288;2023-08-06T10:18:11;100523.72;;;29.84;100.00
51781;BME280;37844;57.126;24.288;2023-08-06T10:20:55;100524.91;;;29.80;100.00
51781;BME280;37844;57.126;24.288;2023-08-06T10:23:40;100511.50;;;29.82;100.00
51781;BME280;37844;57.126;24.288;2023-08-06T10:26:29;100506.88;;;29.96;100.00
51781;BME280;37844;57.126;24.288;2023-08-06T10:32:16;100507.25;;;29.79;100.00
51781;BME280;37844;57.126;24.288;2023-08-06T10:35:02;100498.97;;;29.84;100.00
51781;BME280;37844;57.126;24.288;2023-08-06T10:37:47;100489.97;;;29.73;100.00
51781;BME280;37844;57.126;24.288;2023-08-06T10:40:32;100494.41;;;29.73;100.00
51781;BME280;37844;57.126;24.288;2023-08-06T10:43:36;100488.44;;;29.82;100.00
51781;BME280;37844;57.126;24.288;2023-08-06T10:46:27;100483.72;;;29.98;100.00
51781;BME280;37844;57.126;24.288;2023-08-06T10:49:11;100481.69;;;30.02;100.00
51781;BME280;37844;57.126;24.288;2023-08-06T10:51:56;100463.34;;;30.10;100.00
51781;BME280;37844;57.126;24.288;2023-08-06T10:54:40;100479.63;;;30.18;100.00
51781;BME280;37844;57.126;24.288;2023-08-06T10:57:24;100483.63;;;30.24;100.00
51781;BME280;37844;57.126;24.288;2023-08-06T11:00:09;100487.56;;;30.31;100.00
51781;BME280;37844;57.126;24.288;2023-08-06T11:02:53;100473.50;;;30.29;100.00
51781;BME280;37844;57.126;24.288;2023-08-06T11:05:39;100475.97;;;30.19;100.00
51781;BME280;37844;57.126;24.288;2023-08-06T11:08:25;100459.78;;;30.22;100.00
51781;BME280;37844;57.126;24.288;2023-08-06T11:11:11;100472.09;;;30.36;100.00
51781;BME280;37844;57.126;24.288;2023-08-06T11:13:56;100459.53;;;30.38;100.00
51781;BME280;37844;57.126;24.288;2023-08-06T11:16:40;100471.84;;;30.39;100.00
51781;BME280;37844;57.126;24.288;2023-08-06T11:19:24;100451.47;;;30.51;100.00
51781;BME280;37844;57.126;24.288;2023-08-06T11:22:09;100453.19;;;30.52;100.00
51781;BME280;37844;57.126;24.288;2023-08-06T11:24:54;100471.97;;;30.62;100.00
51781;BME280;37844;57.126;24.288;2023-08-06T11:27:39;100444.16;;;30.66;100.00
51781;BME280;37844;57.126;24.288;2023-08-06T11:30:23;100442.84;;;30.72;100.00
51781;BME280;37844;57.126;24.288;2023-08-06T11:33:07;100440.97;;;30.61;100.00
51781;BME280;37844;57.126;24.288;2023-08-06T11:35:55;100448.06;;;30.73;100.00
51781;BME280;37844;57.126;24.288;2023-08-06T11:38:40;100429.53;;;30.72;100.00
51781;BME280;37844;57.126;24.288;2023-08-06T11:41:25;100433.09;;;30.83;100.00
51781;BME280;37844;57.126;24.288;2023-08-06T11:44:11;100430.91;;;30.89;100.00
51781;BME280;37844;57.126;24.288;2023-08-06T11:46:57;100418.81;;;30.84;100.00
51781;BME280;37844;57.126;24.288;2023-08-06T11:49:49;100428.81;;;30.81;100.00
51781;BME280;37844;57.126;24.288;2023-08-06T11:52:33;100420.28;;;30.89;100.00
51781;BME280;37844;57.126;24.288;2023-08-06T11:55:17;100410.47;;;31.00;100.00
51781;BME280;37844;57.126;24.288;2023-08-06T11:58:05;100406.25;;;31.09;100.00
51781;BME280;37844;57.126;24.288;2023-08-06T12:00:56;100412.91;;;31.03;100.00
51781;BME280;37844;57.126;24.288;2023-08-06T12:03:41;100422.94;;;31.00;100.00
51781;BME280;37844;57.126;24.288;2023-08-06T12:06:28;100402.03;;;31.06;100.00
51781;BME280;37844;57.126;24.288;2023-08-06T12:09:12;100408.78;;;31.11;98.84
51781;BME280;37844;57.126;24.288;2023-08-06T12:11:56;100410.97;;;31.05;98.23
51781;BME280;37844;57.126;24.288;2023-08-06T12:14:40;100433.50;;;31.01;98.31
51781;BME280;37844;57.126;24.288;2023-08-06T12:17:25;100397.66;;;31.05;99.31
51781;BME280;37844;57.126;24.288;2023-08-06T12:20:09;100394.75;;;31.20;99.58
51781;BME280;37844;57.126;24.288;2023-08-06T12:22:54;100402.16;;;31.16;98.77
51781;BME280;37844;57.126;24.288;2023-08-06T12:25:38;100387.16;;;31.04;96.00
51781;BME280;37844;57.126;24.288;2023-08-06T12:28:22;100395.34;;;31.23;98.56
51781;BME280;37844;57.126;24.288;2023-08-06T12:31:06;100388.84;;;31.16;95.64
51781;BME280;37844;57.126;24.288;2023-08-06T12:33:50;100396.56;;;31.19;95.96
51781;BME280;37844;57.126;24.288;2023-08-06T12:36:34;100377.19;;;31.17;96.63
51781;BME280;37844;57.126;24.288;2023-08-06T12:39:18;100396.91;;;31.03;97.75
51781;BME280;37844;57.126;24.288;2023-08-06T12:42:03;100383.59;;;31.03;97.26
51781;BME280;37844;57.126;24.288;2023-08-06T12:44:51;100363.19;;;31.04;98.19
51781;BME280;37844;57.126;24.288;2023-08-06T12:47:35;100356.63;;;31.19;96.69
51781;BME280;37844;57.126;24.288;2023-08-06T12:50:19;100371.88;;;31.17;94.50
51781;BME280;37844;57.126;24.288;2023-08-06T12:53:03;100392.81;;;31.11;96.16
51781;BME280;37844;57.126;24.288;2023-08-06T12:55:49;100352.53;;;31.04;97.53
51781;BME280;37844;57.126;24.288;2023-08-06T12:58:33;100358.44;;;31.08;98.39
51781;BME280;37844;57.126;24.288;2023-08-06T13:01:17;100366.91;;;31.24;97.91
51781;BME280;37844;57.126;24.288;2023-08-06T13:04:08;100343.19;;;31.10;96.87
51781;BME280;37844;57.126;24.288;2023-08-06T13:06:52;100352.16;;;31.09;97.27
51781;BME280;37844;57.126;24.288;2023-08-06T13:09:36;100371.03;;;31.05;92.04
51781;BME280;37844;57.126;24.288;2023-08-06T13:12:20;100342.97;;;31.01;93.58
51781;BME280;37844;57.126;24.288;2023-08-06T13:15:07;100341.13;;;31.13;96.21
51781;BME280;37844;57.126;24.288;2023-08-06T13:17:51;100343.66;;;31.15;95.03
51781;BME280;37844;57.126;24.288;2023-08-06T13:20:38;100342.09;;;31.12;93.50
51781;BME280;37844;57.126;24.288;2023-08-06T13:23:23;100339.34;;;31.14;94.77
51781;BME280;37844;57.126;24.288;2023-08-06T13:26:07;100330.63;;;31.12;93.37
51781;BME280;37844;57.126;24.288;2023-08-06T13:28:51;100325.03;;;31.15;92.52
51781;BME280;37844;57.126;24.288;2023-08-06T13:31:36;100338.25;;;31.16;93.78
51781;BME280;37844;57.126;24.288;2023-08-06T13:34:20;100326.13;;;31.23;94.13
51781;BME280;37844;57.126;24.288;2023-08-06T13:37:04;100331.19;;;31.26;92.75
51781;BME280;37844;57.126;24.288;2023-08-06T13:39:48;100314.84;;;31.31;93.63
51781;BME280;37844;57.126;24.288;2023-08-06T13:42:32;100317.25;;;31.34;92.25
51781;BME280;37844;57.126;24.288;2023-08-06T13:45:16;100313.75;;;31.34;93.07
51781;BME280;37844;57.126;24.288;2023-08-06T13:48:00;100333.47;;;31.31;90.80
51781;BME280;37844;57.126;24.288;2023-08-06T13:50:45;100330.44;;;31.36;89.37
51781;BME280;37844;57.126;24.288;2023-08-06T13:53:28;100314.94;;;31.30;89.43
51781;BME280;37844;57.126;24.288;2023-08-06T13:56:14;100315.81;;;31.41;90.56
51781;BME280;37844;57.126;24.288;2023-08-06T13:59:01;100314.72;;;31.33;89.67
51781;BME280;37844;57.126;24.288;2023-08-06T14:01:45;100301.53;;;31.31;90.64
51781;BME280;37844;57.126;24.288;2023-08-06T14:04:30;100308.41;;;31.34;90.03
51781;BME280;37844;57.126;24.288;2023-08-06T14:07:14;100322.00;;;31.19;89.85
51781;BME280;37844;57.126;24.288;2023-08-06T14:09:58;100292.50;;;31.11;90.27
51781;BME280;37844;57.126;24.288;2023-08-06T14:12:42;100290.31;;;31.16;89.41